Terminal Aerodrome Forecast
Issued by NWS

Home | Current Version | Previous Version | Text Only | Print | Product List | Glossary On
Versions: 1 2 3 4 5 6 7 8 9 10 11
000
FTUS45 KLKN 112323
TAFELY
TAF
KELY 112323Z 1200/1224 35006KT P6SM FEW250
     FM120200 17011KT P6SM FEW250
     FM122100 36006KT P6SM FEW250=

USA.gov is the U.S. government's official web portal to all federal, state and local government web resources and services.